Latest Weather Observations for Charlton

IDV60801

Issued at 11:31 pm EST Friday 3 July 2015 (issued every 30 minutes, with the page automatically refreshed every 10 minutes)

About weather observations | Map of weather stations | Latest weather observations for VIC | Other Formats
Station Details ID: 080128 Name: CHARLTON Lat: -36.28 Lon: 143.33 Height: 131.7 m
Data from the previous 72 hours. | See also: Recent months at Charlton
Date/Time
EST
Temp
°C
App
Temp
°C
Dew
Point
Rel
Hum
%
Delta-T
°C
Wind Press
QNH
hPa
Press
MSL
hPa
Rain
since 9 am
mm
Dir
 
Spd
km/h
Gust
km/h
Spd
kts
Gust
kts
03/11:30pm 4.4 2.6 1.4 81 1.2 CALM 0 0 0 0 1025.8 1026.1 0.0
03/11:00pm 4.1 2.3 1.1 81 1.2 CALM 0 0 0 0 1025.9 1026.2 0.0
03/10:30pm 3.9 2.0 0.8 80 1.2 CALM 0 0 0 0 1026.1 1026.4 0.0
03/10:00pm 4.1 2.2 0.8 79 1.3 CALM 0 0 0 0 1026.4 1026.6 0.0
03/09:30pm 4.4 2.5 0.7 77 1.4 CALM 0 0 0 0 1026.4 1026.6 0.0
03/09:00pm 4.6 2.8 1.1 78 1.4 CALM 0 0 0 0 1026.4 1026.6 0.0
03/08:30pm 4.6 2.7 0.7 76 1.5 CALM 0 0 0 0 1026.2 1026.5 0.0
03/08:00pm 4.8 2.9 0.6 74 1.6 CALM 0 0 0 0 1026.4 1026.6 0.0
03/07:30pm 4.4 2.4 0.2 74 1.6 CALM 0 0 0 0 1026.4 1026.6 0.0
03/07:00pm 5.2 3.2 0.2 70 1.9 CALM 0 0 0 0 1026.6 1026.8 0.0
03/06:30pm 6.4 3.3 0.1 64 2.5 WSW 6 7 3 4 1026.6 1026.8 0.0
03/06:00pm 7.5 4.3 0.5 61 2.8 W 7 11 4 6 1026.8 1027.0 0.0
03/05:30pm 8.4 5.1 0.4 57 3.2 WNW 7 9 4 5 1026.5 1026.7 0.0
03/05:00pm 9.4 5.8 0.3 53 3.7 WNW 9 11 5 6 1026.5 1026.7 0.0
03/04:30pm 10.1 6.5 0.4 51 4.0 NW 9 11 5 6 1026.4 1026.6 0.0
03/04:00pm 10.3 6.7 0.3 50 4.1 WNW 9 15 5 8 1026.4 1026.6 0.0
03/03:30pm 10.2 6.1 0.0 49 4.1 NW 11 17 6 9 1026.6 1026.8 0.0
03/03:00pm 11.5 8.3 0.9 48 4.4 W 7 11 4 6 1026.6 1026.8 0.0
03/02:30pm 10.4 6.0 0.2 49 4.2 NW 13 17 7 9 1026.7 1026.9 0.0
03/02:00pm 11.4 7.4 0.2 46 4.6 WNW 11 24 6 13 1027.1 1027.3 0.0
03/01:30pm 11.5 8.0 1.2 49 4.4 WNW 9 15 5 8 1027.5 1027.7 0.0
03/01:00pm 11.3 7.8 1.3 50 4.2 W 9 19 5 10 1028.0 1028.2 0.0
03/12:30pm 10.2 7.4 1.8 56 3.6 NW 6 9 3 5 1028.4 1028.7 0.0
03/12:00pm 10.3 7.4 1.7 55 3.6 ESE 6 7 3 4 1028.7 1029.0 0.0
03/11:30am 10.7 8.8 3.0 59 3.4 NE 2 7 1 4 1029.0 1029.3 0.0
03/11:00am 8.6 6.3 2.8 67 2.5 SW 4 7 2 4 1029.4 1029.7 0.0
03/10:30am 6.6 4.4 3.2 79 1.4 SSE 4 7 2 4 1029.6 1029.9 0.0
03/10:00am 4.9 2.7 3.1 88 0.7 SSE 4 7 2 4 1029.7 1030.0 0.0
03/09:30am 2.2 0.0 1.0 92 0.5 S 2 7 1 4 1029.6 1029.9 0.0
03/09:00am 0.9 -1.0 0.8 99 0.0 CALM 0 0 0 0 1029.6 1029.9 0.0
03/08:30am -0.9 -3.0 -1.0 99 0.0 CALM 0 0 0 0 1029.7 1030.0 0.0
03/08:00am -1.9 -4.2 -2.0 99 -0.1 CALM 0 0 0 0 1029.4 1029.7 0.0
03/07:30am -2.6 -4.9 -2.7 99 -0.1 CALM 0 0 0 0 1029.3 1029.6 0.0
03/07:00am -2.9 -5.3 -3.2 98 0.0 CALM 0 0 0 0 1029.1 1029.4 0.0
03/06:30am -2.0 -4.3 -2.1 99 -0.1 CALM 0 0 0 0 1028.9 1029.2 0.0
03/06:00am -2.4 -4.7 -2.5 99 -0.1 CALM 0 0 0 0 1028.8 1029.1 0.0
03/05:30am -2.1 -4.4 -2.2 99 -0.1 CALM 0 0 0 0 1028.8 1029.1 0.0
03/05:00am -1.8 -4.1 -2.1 98 0.0 CALM 0 0 0 0 1028.6 1028.9 0.0
03/04:30am -1.2 -3.7 -1.3 99 0.0 WSW 2 7 1 4 1028.7 1029.0 0.0
03/04:00am -1.7 -4.0 -2.3 96 0.1 CALM 0 0 0 0 1028.7 1029.0 0.0
03/03:30am -0.5 -2.9 -0.6 99 0.0 WSW 2 6 1 3 1028.7 1029.0 0.0
03/03:00am -0.6 -3.5 -0.9 98 0.1 W 4 6 2 3 1029.0 1029.3 0.0
03/02:30am -0.5 -2.6 -0.9 97 0.1 CALM 0 2 0 1 1029.0 1029.3 0.0
03/02:00am -0.1 -2.9 -0.5 97 0.1 WSW 4 7 2 4 1028.9 1029.2 0.0
03/01:30am -0.1 -2.2 -1.1 93 0.3 CALM 0 0 0 0 1028.7 1029.0 0.0
03/01:00am 0.8 -1.2 -0.2 93 0.4 CALM 0 0 0 0 1029.0 1029.3 0.0
03/12:30am 0.9 -1.6 -0.7 89 0.6 N 2 6 1 3 1029.1 1029.4 0.0
03/12:00am 1.6 -0.7 0.1 90 0.5 SSE 2 9 1 5 1029.5 1029.8 0.0
 
Date/Time
EST
Temp
°C
App
Temp
°C
Dew
Point
Rel
Hum
%
Delta-T
°C
Wind Press
QNH
hPa
Press
MSL
hPa
Rain
since 9 am
mm
Dir
 
Spd
km/h
Gust
km/h
Spd
kts
Gust
kts
02/11:30pm 1.5 -1.3 -0.4 87 0.7 SSW 4 7 2 4 1029.5 1029.8 0.0
02/11:00pm 2.0 0.0 -0.2 85 0.8 CALM 0 0 0 0 1029.5 1029.8 0.0
02/10:30pm 2.5 0.1 -0.3 82 1.0 S 2 6 1 3 1029.6 1029.9 0.0
02/10:00pm 3.3 1.0 0.2 80 1.2 S 2 9 1 5 1029.4 1029.7 0.0
02/09:30pm 3.8 0.6 -0.2 75 1.5 SW 6 7 3 4 1029.6 1029.9 0.0
02/09:00pm 5.8 2.2 0.8 70 2.0 SSW 9 15 5 8 1029.3 1029.6 0.0
02/08:30pm 5.9 2.7 0.7 69 2.0 SSW 7 13 4 7 1029.1 1029.4 0.0
02/08:00pm 6.1 2.5 0.4 67 2.2 SSW 9 11 5 6 1029.1 1029.4 0.0
02/07:30pm 6.8 3.6 0.5 64 2.5 SW 7 11 4 6 1028.5 1028.8 0.0
02/07:00pm 7.6 4.4 0.8 62 2.7 SW 7 13 4 7 1028.5 1028.8 0.0
02/06:30pm 8.6 4.7 1.3 60 3.0 SW 11 17 6 9 1028.0 1028.2 0.0
02/06:00pm 9.4 5.2 1.6 58 3.2 SSW 13 20 7 11 1027.7 1027.9 0.0
02/05:30pm 10.0 5.8 1.9 57 3.4 SSW 13 24 7 13 1027.5 1027.7 0.0
02/05:00pm 10.8 6.4 0.5 49 4.2 SSW 13 20 7 11 1027.2 1027.4 0.0
02/04:30pm 11.1 5.9 0.2 47 4.5 SSW 17 30 9 16 1027.0 1027.2 0.0
02/04:00pm 11.1 6.1 1.1 50 4.2 SSW 17 24 9 13 1026.8 1027.0 0.0
02/03:30pm 12.3 7.1 0.4 44 5.0 SSW 17 35 9 19 1026.4 1026.6 0.0
02/03:00pm 12.0 5.9 0.1 44 4.9 SSW 22 32 12 17 1025.7 1026.0 0.0
02/02:30pm 11.8 6.2 1.4 49 4.4 SSW 20 32 11 17 1025.7 1026.0 0.0
02/02:00pm 11.8 6.2 0.0 44 4.8 SSW 19 26 10 14 1025.6 1025.9 0.0
02/01:30pm 13.0 7.2 0.1 41 5.4 SW 20 33 11 18 1025.2 1025.5 0.0
02/01:00pm 12.6 6.3 1.6 47 4.7 SSW 24 35 13 19 1025.0 1025.3 0.0
02/12:30pm 12.3 6.2 2.7 52 4.2 SSW 24 39 13 21 1024.9 1025.2 0.0
02/12:00pm 12.2 7.2 4.4 59 3.5 SSW 20 35 11 19 1025.1 1025.4 0.0
02/11:30am 12.1 7.2 5.3 63 3.2 SW 20 39 11 21 1025.0 1025.3 0.0
02/11:00am 12.0 7.0 4.7 61 3.3 WSW 20 33 11 18 1024.8 1025.1 0.0
02/10:30am 11.9 7.1 5.8 66 2.9 WSW 20 32 11 17 1024.6 1024.9 0.0
02/10:00am 11.1 6.5 6.5 73 2.2 WSW 20 32 11 17 1024.3 1024.6 0.0
02/09:30am 10.5 6.5 6.8 78 1.8 WSW 17 28 9 15 1024.3 1024.6 0.0
02/09:00am 9.8 6.7 7.4 85 1.1 WSW 13 22 7 12 1024.1 1024.4 0.0
02/08:30am 8.9 5.9 7.7 92 0.6 W 13 26 7 14 1024.0 1024.3 0.0
02/08:00am 8.8 5.1 7.9 94 0.4 W 17 28 9 15 1023.6 1023.9 0.0
02/07:30am 8.3 4.4 7.2 93 0.5 W 17 24 9 13 1023.2 1023.5 0.0
02/07:00am 7.9 4.7 6.7 92 0.6 W 13 20 7 11 1022.8 1023.1 0.0
02/06:30am 7.9 3.8 6.4 90 0.7 W 17 28 9 15 1022.3 1022.6 0.0
02/06:00am 8.1 3.9 5.9 86 1.0 W 17 24 9 13 1022.1 1022.4 0.0
02/05:30am 8.4 4.2 5.7 83 1.2 W 17 28 9 15 1022.0 1022.2 0.0
02/05:00am 9.1 4.7 4.7 74 2.0 WNW 17 26 9 14 1022.0 1022.2 0.0
02/04:30am 8.6 4.9 4.4 75 1.9 NW 13 22 7 12 1022.0 1022.2 0.0
02/04:00am 8.5 4.4 4.1 74 1.9 NW 15 20 8 11 1022.1 1022.4 0.0
02/03:30am 8.0 4.2 3.8 75 1.8 NW 13 20 7 11 1022.6 1022.9 0.0
02/03:00am 8.2 4.4 4.0 75 1.8 NW 13 20 7 11 1022.6 1022.9 0.0
02/02:30am 8.5 4.8 4.3 75 1.9 NW 13 20 7 11 1023.0 1023.3 0.0
02/02:00am 8.6 4.9 4.4 75 1.8 NW 13 20 7 11 1023.0 1023.3 0.0
02/01:30am 8.9 5.2 4.5 74 2.0 NW 13 20 7 11 1023.1 1023.4 0.0
02/01:00am 8.8 5.5 4.4 74 1.9 NW 11 19 6 10 1023.4 1023.7 0.0
02/12:30am 9.3 6.0 4.5 72 2.1 NW 11 17 6 9 1024.0 1024.3 0.0
02/12:00am 9.3 5.5 4.1 70 2.3 NW 13 19 7 10 1024.4 1024.7 0.0
 
Date/Time
EST
Temp
°C
App
Temp
°C
Dew
Point
Rel
Hum
%
Delta-T
°C
Wind Press
QNH
hPa
Press
MSL
hPa
Rain
since 9 am
mm
Dir
 
Spd
km/h
Gust
km/h
Spd
kts
Gust
kts
01/11:30pm 9.3 5.8 3.7 68 2.5 NW 11 19 6 10 1024.6 1024.9 0.0
01/11:00pm 9.3 5.4 3.5 67 2.5 NW 13 20 7 11 1024.8 1025.1 0.0
01/10:30pm 9.6 6.1 3.6 66 2.6 NNW 11 19 6 10 1024.9 1025.2 0.0
01/10:00pm 10.0 7.0 4.2 67 2.6 NW 9 13 5 7 1025.0 1025.3 0.0
01/09:30pm 10.2 6.9 4.4 67 2.6 NW 11 19 6 10 1024.9 1025.2 0.0
01/09:00pm 10.3 6.4 3.6 63 2.9 NW 13 20 7 11 1025.0 1025.3 0.0
01/08:30pm 10.3 6.4 3.6 63 3.0 NW 13 22 7 12 1025.1 1025.4 0.0
01/08:00pm 10.3 6.5 3.8 64 2.9 NNW 13 22 7 12 1025.1 1025.4 0.0
01/07:30pm 10.5 6.7 3.8 63 3.0 NNW 13 20 7 11 1025.1 1025.4 0.0
01/07:00pm 10.7 6.9 3.7 62 3.1 NNW 13 19 7 10 1024.9 1025.2 0.0
01/06:30pm 10.8 7.7 3.6 61 3.2 NNW 9 13 5 7 1025.0 1025.3 0.0
01/06:00pm 11.0 7.9 3.8 61 3.2 NNW 9 15 5 8 1024.8 1025.1 0.0
01/05:30pm 11.4 8.4 3.9 60 3.4 NW 9 13 5 7 1024.7 1025.0 0.0
01/05:00pm 12.0 8.9 3.8 57 3.7 NNW 9 15 5 8 1024.5 1024.8 0.0
01/04:30pm 12.2 9.1 3.7 56 3.8 NW 9 17 5 9 1025.1 1025.4 0.0
01/04:00pm 12.4 7.7 3.4 54 4.0 NW 17 24 9 13 1025.3 1025.6 0.0
01/03:30pm 12.7 8.8 3.4 53 4.2 NW 13 20 7 11 1025.4 1025.7 0.0
01/03:00pm 13.2 9.3 3.6 52 4.3 NW 13 20 7 11 1025.4 1025.7 0.0
01/02:30pm 13.0 8.8 3.7 53 4.2 WNW 15 22 8 12 1025.8 1026.1 0.0
01/02:00pm 13.2 9.0 3.6 52 4.3 WNW 15 24 8 13 1026.1 1026.4 0.0
01/01:30pm 12.2 7.7 4.4 59 3.6 NW 17 24 9 13 1026.8 1027.0 0.0
01/01:00pm 12.0 8.4 5.0 62 3.2 WNW 13 20 7 11 1027.3 1027.5 0.0
01/12:30pm 11.6 7.4 3.9 59 3.5 WNW 15 24 8 13 1027.9 1028.1 0.0
01/12:00pm 11.6 7.9 4.3 61 3.3 NW 13 24 7 13 1028.0 1028.2 0.0
01/11:30am 10.8 7.1 4.7 66 2.8 NW 13 19 7 10 1028.6 1028.9 0.0
01/11:00am 10.2 7.4 5.2 71 2.3 NW 9 15 5 8 1029.1 1029.4 0.0
01/10:30am 9.6 7.8 5.4 75 1.9 WNW 4 11 2 6 1029.5 1029.8 0.0
01/10:00am 7.9 5.6 5.0 82 1.3 NE 6 7 3 4 1029.7 1030.0 0.0
01/09:30am 6.6 5.7 6.2 97 0.2 CALM 0 0 0 0 1029.9 1030.1 0.0
01/09:00am 2.8 1.2 2.7 99 0.0 CALM 0 0 0 0 1029.7 1029.9 0.0
01/08:30am 2.3 0.7 2.2 99 0.0 CALM 0 0 0 0 1029.5 1029.7 0.0
01/08:00am 0.8 -1.1 0.7 99 0.0 CALM 0 0 0 0 1029.3 1029.5 0.0
01/07:30am 1.1 -0.7 1.0 99 0.0 CALM 0 0 0 0 1028.9 1029.1 0.0
01/07:00am 1.6 -0.2 1.5 99 0.0 CALM 0 0 0 0 1028.8 1029.0 0.0
01/06:30am 1.2 -0.6 1.1 99 0.0 CALM 0 0 0 0 1028.5 1028.7 0.0
01/06:00am 1.0 -0.8 0.9 99 0.0 CALM 0 0 0 0 1028.3 1028.5 0.0
01/05:30am 1.7 0.0 1.6 99 0.0 CALM 0 0 0 0 1028.2 1028.4 0.0
01/05:00am 1.6 -0.2 1.5 99 0.0 CALM 0 0 0 0 1027.9 1028.1 0.0
01/04:30am 1.8 -0.3 1.7 99 0.0 SE 2 6 1 3 1028.0 1028.2 0.0
01/04:00am 1.9 0.2 1.6 98 0.1 CALM 0 0 0 0 1028.2 1028.4 0.0
01/03:30am 2.6 1.0 2.2 97 0.2 CALM 0 0 0 0 1028.1 1028.3 0.0
01/03:00am 3.1 1.5 2.4 95 0.3 CALM 0 0 0 0 1028.2 1028.4 0.0
01/02:30am 3.7 2.1 2.5 92 0.5 CALM 0 0 0 0 1028.4 1028.6 0.0
01/02:00am 4.3 2.4 2.8 90 0.6 E 2 6 1 3 1028.7 1028.9 0.0
01/01:30am 5.1 3.6 3.1 87 0.8 CALM 0 6 0 3 1028.9 1029.1 0.0
01/01:00am 5.5 4.1 3.3 86 0.9 CALM 0 0 0 0 1029.0 1029.2 0.0
01/12:30am 5.9 4.5 3.6 85 1.0 CALM 0 6 0 3 1029.2 1029.4 0.0
01/12:00am 6.7 4.9 3.3 79 1.4 NW 2 6 1 3 1029.3 1029.5 0.0

Other Formats:

Comma delimited format used in spreadsheet applications
http://www.bom.gov.au/fwo/IDV60801/IDV60801.94839.axf

JavaScript Object Notation format (JSON) in row-major order
http://www.bom.gov.au/fwo/IDV60801/IDV60801.94839.json